2MARL EGJB-EGJA

Flight info

Callsign 2MARL
Flight time N/A
Altitude 7000
Route ALD
Aircraft SF50/L-SDGRWY/L

Departure

Time 2026-04-27 12:45
Airport Guernsey Airport (EGJB)

Arrival

Time N/A
Airport Alderney Airport (EGJA)
Time Latitude Longitude Altitude Speed Heading
2026-04-27 12:39 49.43194 -2.59994 338 ft 0 kts 237°
2026-04-27 12:42 49.43196 -2.59979 335 ft 9 kts 86°
2026-04-27 12:42 49.43225 -2.59927 338 ft 10 kts
2026-04-27 12:43 49.43325 -2.59933 338 ft 19 kts 351°
2026-04-27 12:43 49.43337 -2.60053 337 ft 16 kts 266°
2026-04-27 12:43 49.43334 -2.60210 333 ft 7 kts 269°
2026-04-27 12:43 49.43325 -2.60371 329 ft 22 kts 270°
2026-04-27 12:44 49.43337 -2.60689 322 ft 37 kts 277°
2026-04-27 12:44 49.43362 -2.60966 315 ft 21 kts 269°
2026-04-27 12:44 49.43361 -2.61126 312 ft 13 kts 266°
2026-04-27 12:44 49.43380 -2.61292 308 ft 25 kts 309°
2026-04-27 12:45 49.43471 -2.61180 310 ft 45 kts 86°
2026-04-27 12:45 49.43498 -2.60362 372 ft 99 kts 80°
2026-04-27 12:45 49.43522 -2.59352 990 ft 91 kts 83°
2026-04-27 12:45 49.43555 -2.58339 1500 ft 105 kts 84°
2026-04-27 12:46 49.43593 -2.57168 2210 ft 113 kts 79°
2026-04-27 12:46 49.44079 -2.56201 2964 ft 123 kts 41°
2026-04-27 12:46 49.44810 -2.55245 3299 ft 163 kts 41°
2026-04-27 12:46 49.45808 -2.53917 3292 ft 216 kts 41°
2026-04-27 12:47 49.47069 -2.52243 3278 ft 259 kts 41°
2026-04-27 12:47 49.48440 -2.50420 3263 ft 262 kts 41°
2026-04-27 12:47 49.49818 -2.48604 3257 ft 261 kts 40°
2026-04-27 12:47 49.51194 -2.46786 3260 ft 260 kts 41°
2026-04-27 12:48 49.52581 -2.44965 3263 ft 264 kts 40°
2026-04-27 12:48 49.53996 -2.43149 3260 ft 266 kts 40°
2026-04-27 12:48 49.54942 -2.41944 3261 ft 266 kts 40°
2026-04-27 12:48 49.56829 -2.39530 3265 ft 267 kts 40°
2026-04-27 12:49 49.58257 -2.37699 3263 ft 267 kts 40°
2026-04-27 12:49 49.59690 -2.35870 3263 ft 267 kts 40°
2026-04-27 12:49 49.61120 -2.34045 3264 ft 267 kts 40°
2026-04-27 12:49 49.62549 -2.32223 3246 ft 268 kts 40°
2026-04-27 12:50 49.63940 -2.30441 3122 ft 235 kts 40°
2026-04-27 12:50 49.64739 -2.29514 3025 ft 202 kts 35°
2026-04-27 12:50 49.65856 -2.28479 2765 ft 181 kts 30°
2026-04-27 12:50 49.66968 -2.27635 2335 ft 170 kts 27°
2026-04-27 12:51 49.68264 -2.26628 1968 ft 139 kts 30°